sensor_id;sensor_type;location;lat;lon;timestamp;pressure;altitude;pressure_sealevel;temperature;humidity
27685;BME280;46113;50.130;8.526;2023-04-24T00:01:44;97935.22;;;7.80;76.59
27685;BME280;46113;50.130;8.526;2023-04-24T00:04:11;97930.81;;;8.20;76.70
27685;BME280;46113;50.130;8.526;2023-04-24T00:06:40;97923.94;;;8.30;76.90
27685;BME280;46113;50.130;8.526;2023-04-24T00:09:09;97923.19;;;8.41;76.31
27685;BME280;46113;50.130;8.526;2023-04-24T00:11:36;97931.63;;;8.46;76.30
27685;BME280;46113;50.130;8.526;2023-04-24T00:14:03;97928.25;;;8.31;76.37
27685;BME280;46113;50.130;8.526;2023-04-24T00:16:30;97916.59;;;7.83;76.36
27685;BME280;46113;50.130;8.526;2023-04-24T00:18:57;97921.63;;;8.26;75.43
27685;BME280;46113;50.130;8.526;2023-04-24T00:21:24;97909.50;;;8.36;73.33
27685;BME280;46113;50.130;8.526;2023-04-24T00:23:52;97915.50;;;8.25;74.69
27685;BME280;46113;50.130;8.526;2023-04-24T00:26:19;97907.63;;;8.12;74.35
27685;BME280;46113;50.130;8.526;2023-04-24T00:28:46;97914.66;;;8.11;75.59
27685;BME280;46113;50.130;8.526;2023-04-24T00:31:13;97911.41;;;8.21;75.93
27685;BME280;46113;50.130;8.526;2023-04-24T00:33:40;97909.78;;;8.44;72.57
27685;BME280;46113;50.130;8.526;2023-04-24T00:36:07;97909.94;;;8.56;74.48
27685;BME280;46113;50.130;8.526;2023-04-24T00:38:34;97907.81;;;8.22;76.63
27685;BME280;46113;50.130;8.526;2023-04-24T00:41:01;97900.22;;;8.30;73.39
27685;BME280;46113;50.130;8.526;2023-04-24T00:43:27;97903.78;;;8.42;71.96
27685;BME280;46113;50.130;8.526;2023-04-24T00:49:47;97884.19;;;8.59;73.20
27685;BME280;46113;50.130;8.526;2023-04-24T00:52:14;97873.53;;;8.35;74.56
27685;BME280;46113;50.130;8.526;2023-04-24T00:54:44;97874.69;;;8.57;73.76
27685;BME280;46113;50.130;8.526;2023-04-24T00:57:13;97877.22;;;8.32;73.95
27685;BME280;46113;50.130;8.526;2023-04-24T00:59:42;97868.91;;;8.39;74.97
27685;BME280;46113;50.130;8.526;2023-04-24T01:02:11;97875.66;;;8.30;75.75
27685;BME280;46113;50.130;8.526;2023-04-24T01:04:38;97886.66;;;8.10;76.69
27685;BME280;46113;50.130;8.526;2023-04-24T01:07:06;97877.22;;;8.45;75.75
27685;BME280;46113;50.130;8.526;2023-04-24T01:09:40;97870.25;;;8.57;75.06
27685;BME280;46113;50.130;8.526;2023-04-24T01:12:09;97871.56;;;8.39;75.51
27685;BME280;46113;50.130;8.526;2023-04-24T01:14:37;97868.31;;;7.96;73.67
27685;BME280;46113;50.130;8.526;2023-04-24T01:17:04;97870.50;;;8.41;72.27
27685;BME280;46113;50.130;8.526;2023-04-24T01:19:30;97870.50;;;8.54;73.33
27685;BME280;46113;50.130;8.526;2023-04-24T01:21:58;97875.91;;;8.14;75.11
27685;BME280;46113;50.130;8.526;2023-04-24T01:24:28;97877.38;;;8.05;74.16
27685;BME280;46113;50.130;8.526;2023-04-24T01:26:55;97878.44;;;8.02;74.75
27685;BME280;46113;50.130;8.526;2023-04-24T01:29:23;97877.13;;;8.34;72.89
27685;BME280;46113;50.130;8.526;2023-04-24T01:31:51;97883.28;;;8.08;74.12
27685;BME280;46113;50.130;8.526;2023-04-24T01:34:18;97878.94;;;8.33;71.68
27685;BME280;46113;50.130;8.526;2023-04-24T01:36:45;97888.53;;;8.21;72.43
27685;BME280;46113;50.130;8.526;2023-04-24T01:39:13;97892.19;;;8.45;70.83
27685;BME280;46113;50.130;8.526;2023-04-24T01:41:40;97890.63;;;8.55;71.42
27685;BME280;46113;50.130;8.526;2023-04-24T01:44:07;97892.16;;;8.71;72.51
27685;BME280;46113;50.130;8.526;2023-04-24T01:46:34;97886.72;;;8.61;70.99
27685;BME280;46113;50.130;8.526;2023-04-24T01:49:03;97887.94;;;8.68;71.98
27685;BME280;46113;50.130;8.526;2023-04-24T01:55:29;97879.13;;;8.56;71.52
27685;BME280;46113;50.130;8.526;2023-04-24T01:57:56;97879.22;;;8.42;72.06
27685;BME280;46113;50.130;8.526;2023-04-24T02:00:23;97880.78;;;8.57;72.58
27685;BME280;46113;50.130;8.526;2023-04-24T02:02:52;97879.03;;;8.45;72.88
27685;BME280;46113;50.130;8.526;2023-04-24T02:05:19;97873.69;;;8.20;73.10
27685;BME280;46113;50.130;8.526;2023-04-24T02:07:46;97878.16;;;8.44;72.75
27685;BME280;46113;50.130;8.526;2023-04-24T02:10:13;97875.38;;;8.21;74.12
27685;BME280;46113;50.130;8.526;2023-04-24T02:12:42;97870.19;;;8.33;73.34
27685;BME280;46113;50.130;8.526;2023-04-24T02:15:10;97874.69;;;8.57;73.02
27685;BME280;46113;50.130;8.526;2023-04-24T02:17:37;97875.28;;;8.23;75.40
27685;BME280;46113;50.130;8.526;2023-04-24T02:20:06;97876.34;;;8.20;73.19
27685;BME280;46113;50.130;8.526;2023-04-24T02:22:33;97875.56;;;8.31;74.38
27685;BME280;46113;50.130;8.526;2023-04-24T02:25:01;97875.44;;;8.33;72.52
27685;BME280;46113;50.130;8.526;2023-04-24T02:27:28;97876.59;;;8.42;72.37
27685;BME280;46113;50.130;8.526;2023-04-24T02:29:56;97871.75;;;8.35;74.05
27685;BME280;46113;50.130;8.526;2023-04-24T02:32:22;97863.84;;;8.35;74.28
27685;BME280;46113;50.130;8.526;2023-04-24T02:34:49;97862.69;;;8.40;72.40
27685;BME280;46113;50.130;8.526;2023-04-24T02:37:16;97865.13;;;8.30;74.64
27685;BME280;46113;50.130;8.526;2023-04-24T02:39:43;97857.25;;;8.17;73.23
27685;BME280;46113;50.130;8.526;2023-04-24T02:42:10;97865.00;;;8.31;73.77
27685;BME280;46113;50.130;8.526;2023-04-24T02:44:37;97856.97;;;7.95;75.38
27685;BME280;46113;50.130;8.526;2023-04-24T02:47:04;97847.47;;;8.19;72.11
27685;BME280;46113;50.130;8.526;2023-04-24T02:49:30;97842.06;;;8.07;73.57
27685;BME280;46113;50.130;8.526;2023-04-24T02:51:57;97845.25;;;8.00;73.77
27685;BME280;46113;50.130;8.526;2023-04-24T02:54:24;97840.34;;;8.32;73.04
27685;BME280;46113;50.130;8.526;2023-04-24T02:56:51;97844.38;;;8.25;74.78
27685;BME280;46113;50.130;8.526;2023-04-24T02:59:18;97849.00;;;8.34;74.56
27685;BME280;46113;50.130;8.526;2023-04-24T03:01:44;97849.97;;;8.33;73.77
27685;BME280;46113;50.130;8.526;2023-04-24T03:04:11;97843.22;;;8.29;71.31
27685;BME280;46113;50.130;8.526;2023-04-24T03:06:38;97841.03;;;8.23;73.00
27685;BME280;46113;50.130;8.526;2023-04-24T03:09:05;97831.84;;;8.16;71.89
27685;BME280;46113;50.130;8.526;2023-04-24T03:11:32;97829.59;;;8.35;70.96
27685;BME280;46113;50.130;8.526;2023-04-24T03:13:59;97834.44;;;8.42;72.60
27685;BME280;46113;50.130;8.526;2023-04-24T03:16:26;97833.09;;;8.49;72.74
27685;BME280;46113;50.130;8.526;2023-04-24T03:18:54;97841.50;;;8.54;71.60
27685;BME280;46113;50.130;8.526;2023-04-24T03:21:23;97838.88;;;8.54;70.73
27685;BME280;46113;50.130;8.526;2023-04-24T03:23:50;97841.81;;;8.36;70.98
27685;BME280;46113;50.130;8.526;2023-04-24T03:26:17;97840.53;;;8.42;71.46
27685;BME280;46113;50.130;8.526;2023-04-24T03:28:57;97847.16;;;7.97;74.09
27685;BME280;46113;50.130;8.526;2023-04-24T03:31:24;97840.13;;;8.35;71.50
27685;BME280;46113;50.130;8.526;2023-04-24T03:33:51;97842.34;;;8.42;70.32
27685;BME280;46113;50.130;8.526;2023-04-24T03:36:18;97834.81;;;8.11;70.75
27685;BME280;46113;50.130;8.526;2023-04-24T03:38:45;97845.25;;;8.26;69.56
27685;BME280;46113;50.130;8.526;2023-04-24T03:41:31;97846.28;;;8.23;69.98
27685;BME280;46113;50.130;8.526;2023-04-24T03:44:08;97857.00;;;8.33;71.66
27685;BME280;46113;50.130;8.526;2023-04-24T03:46:35;97848.34;;;8.44;71.22
27685;BME280;46113;50.130;8.526;2023-04-24T03:49:02;97856.66;;;8.37;70.83
27685;BME280;46113;50.130;8.526;2023-04-24T03:51:33;97858.69;;;8.47;69.24
27685;BME280;46113;50.130;8.526;2023-04-24T03:54:19;97855.03;;;8.10;70.68
27685;BME280;46113;50.130;8.526;2023-04-24T03:56:48;97854.13;;;7.86;70.74
27685;BME280;46113;50.130;8.526;2023-04-24T03:59:15;97863.16;;;8.07;70.07
27685;BME280;46113;50.130;8.526;2023-04-24T04:01:46;97857.84;;;8.46;69.99
27685;BME280;46113;50.130;8.526;2023-04-24T04:04:15;97866.69;;;8.58;71.24
27685;BME280;46113;50.130;8.526;2023-04-24T04:06:44;97867.63;;;8.57;71.75
27685;BME280;46113;50.130;8.526;2023-04-24T04:09:11;97862.69;;;8.53;69.79
27685;BME280;46113;50.130;8.526;2023-04-24T04:11:38;97864.72;;;8.49;71.57
27685;BME280;46113;50.130;8.526;2023-04-24T04:14:04;97863.66;;;8.39;69.10
27685;BME280;46113;50.130;8.526;2023-04-24T04:16:33;97861.53;;;8.44;69.09
27685;BME280;46113;50.130;8.526;2023-04-24T04:19:02;97859.78;;;8.18;69.47
27685;BME280;46113;50.130;8.526;2023-04-24T04:21:30;97880.75;;;8.20;67.93
27685;BME280;46113;50.130;8.526;2023-04-24T04:24:09;97878.75;;;7.71;70.08
27685;BME280;46113;50.130;8.526;2023-04-24T04:26:40;97885.81;;;8.23;67.94
27685;BME280;46113;50.130;8.526;2023-04-24T04:29:09;97883.81;;;8.27;68.87
27685;BME280;46113;50.130;8.526;2023-04-24T04:31:40;97889.88;;;8.40;69.71
27685;BME280;46113;50.130;8.526;2023-04-24T04:34:11;97895.69;;;8.58;68.66
27685;BME280;46113;50.130;8.526;2023-04-24T04:36:40;97893.31;;;8.03;71.56
27685;BME280;46113;50.130;8.526;2023-04-24T04:39:20;97891.81;;;8.25;70.50
27685;BME280;46113;50.130;8.526;2023-04-24T04:42:02;97888.84;;;8.17;69.34
27685;BME280;46113;50.130;8.526;2023-04-24T04:44:36;97886.88;;;8.20;69.32
27685;BME280;46113;50.130;8.526;2023-04-24T04:47:04;97893.28;;;8.16;69.33
27685;BME280;46113;50.130;8.526;2023-04-24T04:49:34;97891.84;;;7.86;69.85
27685;BME280;46113;50.130;8.526;2023-04-24T04:55:24;97915.41;;;8.40;69.60
27685;BME280;46113;50.130;8.526;2023-04-24T04:58:24;97914.56;;;7.74;71.71
27685;BME280;46113;50.130;8.526;2023-04-24T05:00:55;97917.00;;;8.03;71.19
27685;BME280;46113;50.130;8.526;2023-04-24T05:03:31;97920.91;;;8.10;70.06
27685;BME280;46113;50.130;8.526;2023-04-24T05:06:03;97921.41;;;8.03;70.91
27685;BME280;46113;50.130;8.526;2023-04-24T05:08:34;97925.00;;;7.76;72.85
27685;BME280;46113;50.130;8.526;2023-04-24T05:11:02;97927.69;;;7.48;73.01
27685;BME280;46113;50.130;8.526;2023-04-24T05:13:30;97932.69;;;7.92;71.45
27685;BME280;46113;50.130;8.526;2023-04-24T05:16:32;97939.91;;;7.49;72.38
27685;BME280;46113;50.130;8.526;2023-04-24T05:18:59;97944.53;;;7.46;71.10
27685;BME280;46113;50.130;8.526;2023-04-24T05:21:32;97941.00;;;7.73;69.76
27685;BME280;46113;50.130;8.526;2023-04-24T05:23:59;97946.34;;;7.71;71.42
27685;BME280;46113;50.130;8.526;2023-04-24T05:26:56;97955.75;;;7.07;74.38
27685;BME280;46113;50.130;8.526;2023-04-24T05:29:28;97964.31;;;6.82;74.29
27685;BME280;46113;50.130;8.526;2023-04-24T05:31:57;97963.91;;;7.17;72.08
27685;BME280;46113;50.130;8.526;2023-04-24T05:34:25;97964.03;;;7.56;70.92
27685;BME280;46113;50.130;8.526;2023-04-24T05:36:55;97968.88;;;7.62;71.31
27685;BME280;46113;50.130;8.526;2023-04-24T05:39:22;97963.88;;;7.85;69.61
27685;BME280;46113;50.130;8.526;2023-04-24T05:42:12;97967.88;;;7.50;68.63
27685;BME280;46113;50.130;8.526;2023-04-24T05:47:59;97980.66;;;8.36;66.42
27685;BME280;46113;50.130;8.526;2023-04-24T05:50:26;97977.56;;;8.81;64.91
27685;BME280;46113;50.130;8.526;2023-04-24T05:52:53;97976.91;;;8.90;63.73
27685;BME280;46113;50.130;8.526;2023-04-24T05:55:25;97984.44;;;9.08;63.77
27685;BME280;46113;50.130;8.526;2023-04-24T05:58:02;97982.09;;;8.79;63.32
27685;BME280;46113;50.130;8.526;2023-04-24T06:00:38;97982.03;;;9.05;63.68
27685;BME280;46113;50.130;8.526;2023-04-24T06:03:14;97989.72;;;8.45;64.34
27685;BME280;46113;50.130;8.526;2023-04-24T06:05:42;97986.66;;;9.14;62.26
27685;BME280;46113;50.130;8.526;2023-04-24T06:08:15;97996.41;;;9.25;60.16
27685;BME280;46113;50.130;8.526;2023-04-24T06:11:02;97985.19;;;9.35;61.08
27685;BME280;46113;50.130;8.526;2023-04-24T06:13:31;97997.63;;;8.71;63.48
27685;BME280;46113;50.130;8.526;2023-04-24T06:16:36;98003.94;;;8.16;63.43
27685;BME280;46113;50.130;8.526;2023-04-24T06:19:15;98009.41;;;8.13;60.62
27685;BME280;46113;50.130;8.526;2023-04-24T06:21:42;98011.50;;;8.86;61.06
27685;BME280;46113;50.130;8.526;2023-04-24T06:24:09;98019.22;;;8.24;61.74
27685;BME280;46113;50.130;8.526;2023-04-24T06:26:37;98010.44;;;8.88;61.81
27685;BME280;46113;50.130;8.526;2023-04-24T06:29:06;98009.25;;;9.06;56.99
27685;BME280;46113;50.130;8.526;2023-04-24T06:31:35;98014.97;;;9.61;56.40
27685;BME280;46113;50.130;8.526;2023-04-24T06:34:04;98012.53;;;9.58;56.37
27685;BME280;46113;50.130;8.526;2023-04-24T06:36:32;98025.44;;;9.25;55.50
27685;BME280;46113;50.130;8.526;2023-04-24T06:39:01;98022.13;;;9.10;58.28
27685;BME280;46113;50.130;8.526;2023-04-24T06:41:29;98017.22;;;9.79;54.52
27685;BME280;46113;50.130;8.526;2023-04-24T06:43:56;98016.59;;;9.75;54.29
27685;BME280;46113;50.130;8.526;2023-04-24T06:46:23;98027.38;;;9.97;53.70
27685;BME280;46113;50.130;8.526;2023-04-24T06:48:56;98020.25;;;9.37;54.45
27685;BME280;46113;50.130;8.526;2023-04-24T06:51:23;98021.81;;;9.39;53.94
27685;BME280;46113;50.130;8.526;2023-04-24T06:53:51;98021.03;;;9.99;51.75
27685;BME280;46113;50.130;8.526;2023-04-24T06:56:19;98020.19;;;9.50;54.35
27685;BME280;46113;50.130;8.526;2023-04-24T06:58:46;98022.09;;;9.97;53.59
27685;BME280;46113;50.130;8.526;2023-04-24T07:01:14;98014.47;;;9.80;50.45
27685;BME280;46113;50.130;8.526;2023-04-24T07:03:41;98026.41;;;9.49;53.50
27685;BME280;46113;50.130;8.526;2023-04-24T07:06:09;98037.50;;;10.14;51.43
27685;BME280;46113;50.130;8.526;2023-04-24T07:08:37;98034.41;;;9.60;53.02
27685;BME280;46113;50.130;8.526;2023-04-24T07:11:04;98039.09;;;9.19;54.15
27685;BME280;46113;50.130;8.526;2023-04-24T07:13:32;98038.31;;;9.30;53.71
27685;BME280;46113;50.130;8.526;2023-04-24T07:15:58;98037.59;;;8.77;55.85
27685;BME280;46113;50.130;8.526;2023-04-24T07:18:26;98042.38;;;9.72;53.40
27685;BME280;46113;50.130;8.526;2023-04-24T07:20:52;98046.50;;;9.38;52.45
27685;BME280;46113;50.130;8.526;2023-04-24T07:23:19;98053.59;;;8.87;55.58
27685;BME280;46113;50.130;8.526;2023-04-24T07:25:46;98062.44;;;8.34;54.21
27685;BME280;46113;50.130;8.526;2023-04-24T07:28:13;98058.31;;;8.43;53.23
27685;BME280;46113;50.130;8.526;2023-04-24T07:30:40;98064.84;;;8.24;50.91
27685;BME280;46113;50.130;8.526;2023-04-24T07:33:07;98059.16;;;8.18;52.83
27685;BME280;46113;50.130;8.526;2023-04-24T07:35:36;98051.88;;;8.21;52.13
27685;BME280;46113;50.130;8.526;2023-04-24T07:38:03;98055.41;;;8.87;51.52
27685;BME280;46113;50.130;8.526;2023-04-24T07:40:29;98050.00;;;8.88;52.39
27685;BME280;46113;50.130;8.526;2023-04-24T07:42:56;98051.47;;;8.93;49.85
27685;BME280;46113;50.130;8.526;2023-04-24T07:45:23;98053.47;;;9.02;50.89
27685;BME280;46113;50.130;8.526;2023-04-24T07:47:52;98055.19;;;8.77;51.07
27685;BME280;46113;50.130;8.526;2023-04-24T07:50:19;98055.03;;;8.01;52.07
27685;BME280;46113;50.130;8.526;2023-04-24T07:52:47;98056.69;;;8.68;52.06
27685;BME280;46113;50.130;8.526;2023-04-24T07:55:14;98053.31;;;9.54;49.47
27685;BME280;46113;50.130;8.526;2023-04-24T07:57:41;98054.19;;;9.79;49.23
27685;BME280;46113;50.130;8.526;2023-04-24T08:00:08;98054.28;;;9.53;52.51
27685;BME280;46113;50.130;8.526;2023-04-24T08:02:38;98045.13;;;9.46;50.60
27685;BME280;46113;50.130;8.526;2023-04-24T08:05:05;98046.69;;;9.97;50.31
27685;BME280;46113;50.130;8.526;2023-04-24T08:07:33;98054.44;;;10.82;48.24
27685;BME280;46113;50.130;8.526;2023-04-24T08:10:02;98041.66;;;10.75;47.29
27685;BME280;46113;50.130;8.526;2023-04-24T08:12:29;98047.38;;;10.24;46.85
27685;BME280;46113;50.130;8.526;2023-04-24T08:14:56;98049.66;;;10.98;47.60
27685;BME280;46113;50.130;8.526;2023-04-24T08:17:23;98051.06;;;12.02;46.01
27685;BME280;46113;50.130;8.526;2023-04-24T08:19:50;98056.84;;;13.03;43.14
27685;BME280;46113;50.130;8.526;2023-04-24T08:22:19;98049.72;;;12.72;43.82
27685;BME280;46113;50.130;8.526;2023-04-24T08:24:46;98053.13;;;11.66;44.83
27685;BME280;46113;50.130;8.526;2023-04-24T08:27:13;98074.59;;;9.77;47.54
27685;BME280;46113;50.130;8.526;2023-04-24T08:29:40;98071.47;;;10.43;46.11
27685;BME280;46113;50.130;8.526;2023-04-24T08:32:07;98073.59;;;10.02;47.04
27685;BME280;46113;50.130;8.526;2023-04-24T08:34:34;98084.81;;;9.44;49.18
27685;BME280;46113;50.130;8.526;2023-04-24T08:37:02;98078.09;;;7.69;51.66
27685;BME280;46113;50.130;8.526;2023-04-24T08:39:29;98087.19;;;9.23;50.01
27685;BME280;46113;50.130;8.526;2023-04-24T08:41:56;98085.41;;;9.61;49.39
27685;BME280;46113;50.130;8.526;2023-04-24T08:44:22;98083.06;;;10.88;46.25
27685;BME280;46113;50.130;8.526;2023-04-24T08:46:50;98087.50;;;10.17;47.30
27685;BME280;46113;50.130;8.526;2023-04-24T08:49:18;98086.16;;;10.59;46.33
27685;BME280;46113;50.130;8.526;2023-04-24T08:51:45;98095.94;;;10.34;46.32
27685;BME280;46113;50.130;8.526;2023-04-24T08:54:14;98094.47;;;10.30;46.89
27685;BME280;46113;50.130;8.526;2023-04-24T08:56:43;98083.41;;;9.14;49.02
27685;BME280;46113;50.130;8.526;2023-04-24T08:59:11;98104.09;;;9.95;47.34
27685;BME280;46113;50.130;8.526;2023-04-24T09:01:40;98093.50;;;10.67;45.70
27685;BME280;46113;50.130;8.526;2023-04-24T09:04:11;98105.25;;;10.62;45.66
27685;BME280;46113;50.130;8.526;2023-04-24T09:06:44;98110.97;;;8.97;49.34
27685;BME280;46113;50.130;8.526;2023-04-24T09:09:11;98107.63;;;9.45;47.72
27685;BME280;46113;50.130;8.526;2023-04-24T09:11:38;98110.78;;;9.50;48.63
27685;BME280;46113;50.130;8.526;2023-04-24T09:14:05;98123.44;;;9.58;47.58
27685;BME280;46113;50.130;8.526;2023-04-24T09:16:33;98109.09;;;8.99;49.34
27685;BME280;46113;50.130;8.526;2023-04-24T09:19:02;98104.69;;;9.99;48.39
27685;BME280;46113;50.130;8.526;2023-04-24T09:21:34;98097.38;;;10.85;46.33
27685;BME280;46113;50.130;8.526;2023-04-24T09:24:04;98111.66;;;10.24;47.06
27685;BME280;46113;50.130;8.526;2023-04-24T09:26:34;98107.81;;;9.92;47.01
27685;BME280;46113;50.130;8.526;2023-04-24T09:29:01;98094.47;;;10.18;46.75
27685;BME280;46113;50.130;8.526;2023-04-24T09:31:30;98105.22;;;10.04;46.58
27685;BME280;46113;50.130;8.526;2023-04-24T09:33:58;98105.31;;;9.78;48.33
27685;BME280;46113;50.130;8.526;2023-04-24T09:36:30;98109.06;;;8.47;50.40
27685;BME280;46113;50.130;8.526;2023-04-24T09:39:08;98102.84;;;9.13;51.28
27685;BME280;46113;50.130;8.526;2023-04-24T09:41:50;98114.06;;;9.41;49.62
27685;BME280;46113;50.130;8.526;2023-04-24T09:46:46;98116.06;;;8.74;49.63
27685;BME280;46113;50.130;8.526;2023-04-24T09:49:21;98119.84;;;8.96;50.57
27685;BME280;46113;50.130;8.526;2023-04-24T09:51:48;98132.97;;;9.48;48.84
27685;BME280;46113;50.130;8.526;2023-04-24T09:54:17;98131.13;;;8.72;49.45
27685;BME280;46113;50.130;8.526;2023-04-24T09:56:46;98127.56;;;9.12;49.50
27685;BME280;46113;50.130;8.526;2023-04-24T09:59:15;98139.44;;;9.30;49.03
27685;BME280;46113;50.130;8.526;2023-04-24T10:01:42;98144.00;;;9.15;48.75
27685;BME280;46113;50.130;8.526;2023-04-24T10:04:31;98129.03;;;8.77;48.29
27685;BME280;46113;50.130;8.526;2023-04-24T10:06:58;98148.00;;;8.95;49.60
27685;BME280;46113;50.130;8.526;2023-04-24T10:09:27;98149.72;;;8.96;49.18
27685;BME280;46113;50.130;8.526;2023-04-24T10:11:55;98153.06;;;8.72;49.78
27685;BME280;46113;50.130;8.526;2023-04-24T10:14:23;98157.31;;;8.75;49.50
27685;BME280;46113;50.130;8.526;2023-04-24T10:16:54;98162.25;;;8.80;49.10
27685;BME280;46113;50.130;8.526;2023-04-24T10:19:25;98167.97;;;8.46;50.95
27685;BME280;46113;50.130;8.526;2023-04-24T10:21:52;98171.03;;;8.93;50.33
27685;BME280;46113;50.130;8.526;2023-04-24T10:24:21;98179.03;;;8.10;51.46
27685;BME280;46113;50.130;8.526;2023-04-24T10:26:48;98173.84;;;8.90;49.46
27685;BME280;46113;50.130;8.526;2023-04-24T10:29:18;98179.00;;;8.53;49.70
27685;BME280;46113;50.130;8.526;2023-04-24T10:31:45;98172.50;;;8.44;50.27
27685;BME280;46113;50.130;8.526;2023-04-24T10:34:15;98181.63;;;7.97;50.70
27685;BME280;46113;50.130;8.526;2023-04-24T10:36:46;98190.50;;;8.37;50.74
27685;BME280;46113;50.130;8.526;2023-04-24T10:39:15;98179.44;;;8.59;50.48
27685;BME280;46113;50.130;8.526;2023-04-24T10:41:43;98179.56;;;8.84;49.27
27685;BME280;46113;50.130;8.526;2023-04-24T10:44:12;98177.63;;;8.32;50.05
27685;BME280;46113;50.130;8.526;2023-04-24T10:46:45;98181.44;;;8.69;50.49
27685;BME280;46113;50.130;8.526;2023-04-24T10:49:13;98175.66;;;8.76;50.23
27685;BME280;46113;50.130;8.526;2023-04-24T10:51:48;98179.47;;;8.98;50.02
27685;BME280;46113;50.130;8.526;2023-04-24T10:54:42;98182.94;;;9.38;49.13
27685;BME280;46113;50.130;8.526;2023-04-24T11:02:37;98178.84;;;9.08;49.55
27685;BME280;46113;50.130;8.526;2023-04-24T11:05:06;98180.06;;;8.63;52.11
27685;BME280;46113;50.130;8.526;2023-04-24T11:08:12;98172.94;;;9.17;50.40
27685;BME280;46113;50.130;8.526;2023-04-24T11:10:44;98190.53;;;9.29;50.29
27685;BME280;46113;50.130;8.526;2023-04-24T11:13:15;98177.00;;;9.21;51.61
27685;BME280;46113;50.130;8.526;2023-04-24T11:15:42;98188.63;;;9.45;51.65
27685;BME280;46113;50.130;8.526;2023-04-24T11:18:14;98193.38;;;9.13;52.27
27685;BME280;46113;50.130;8.526;2023-04-24T11:20:43;98189.56;;;9.30;51.78
27685;BME280;46113;50.130;8.526;2023-04-24T11:23:12;98205.81;;;9.50;50.30
27685;BME280;46113;50.130;8.526;2023-04-24T11:25:39;98215.00;;;8.93;53.84
27685;BME280;46113;50.130;8.526;2023-04-24T11:28:14;98226.94;;;9.11;53.95
27685;BME280;46113;50.130;8.526;2023-04-24T11:30:43;98233.47;;;9.19;56.24
27685;BME280;46113;50.130;8.526;2023-04-24T11:33:19;98240.22;;;8.29;59.49
27685;BME280;46113;50.130;8.526;2023-04-24T11:35:47;98241.03;;;8.16;60.44
27685;BME280;46113;50.130;8.526;2023-04-24T11:38:16;98247.94;;;9.00;60.09
27685;BME280;46113;50.130;8.526;2023-04-24T11:40:50;98253.34;;;8.43;61.79
27685;BME280;46113;50.130;8.526;2023-04-24T11:43:18;98258.19;;;8.36;63.30
27685;BME280;46113;50.130;8.526;2023-04-24T11:45:49;98246.84;;;8.76;63.83
27685;BME280;46113;50.130;8.526;2023-04-24T11:48:20;98246.63;;;8.80;64.24
27685;BME280;46113;50.130;8.526;2023-04-24T11:50:50;98245.53;;;9.36;63.75
27685;BME280;46113;50.130;8.526;2023-04-24T11:53:19;98240.56;;;9.31;59.87
27685;BME280;46113;50.130;8.526;2023-04-24T11:55:48;98229.94;;;9.96;61.38
27685;BME280;46113;50.130;8.526;2023-04-24T11:58:21;98240.31;;;10.48;58.99
27685;BME280;46113;50.130;8.526;2023-04-24T12:00:56;98245.09;;;10.43;58.52
27685;BME280;46113;50.130;8.526;2023-04-24T12:03:27;98242.41;;;10.31;58.33
27685;BME280;46113;50.130;8.526;2023-04-24T12:06:07;98236.91;;;10.34;57.99
27685;BME280;46113;50.130;8.526;2023-04-24T12:08:35;98236.91;;;10.34;59.79
27685;BME280;46113;50.130;8.526;2023-04-24T12:11:05;98236.66;;;9.76;59.19
27685;BME280;46113;50.130;8.526;2023-04-24T12:13:36;98230.50;;;9.88;59.28
27685;BME280;46113;50.130;8.526;2023-04-24T12:16:03;98237.72;;;10.35;61.12
27685;BME280;46113;50.130;8.526;2023-04-24T12:18:32;98237.06;;;9.43;60.09
27685;BME280;46113;50.130;8.526;2023-04-24T12:21:21;98243.88;;;10.11;59.22
27685;BME280;46113;50.130;8.526;2023-04-24T12:23:49;98240.16;;;9.24;60.08
27685;BME280;46113;50.130;8.526;2023-04-24T12:26:18;98252.69;;;8.95;59.94
27685;BME280;46113;50.130;8.526;2023-04-24T12:28:47;98244.84;;;10.70;55.53
27685;BME280;46113;50.130;8.526;2023-04-24T12:31:16;98237.41;;;10.75;54.94
27685;BME280;46113;50.130;8.526;2023-04-24T12:33:43;98249.28;;;10.94;55.20
27685;BME280;46113;50.130;8.526;2023-04-24T12:36:11;98243.16;;;9.96;55.29
27685;BME280;46113;50.130;8.526;2023-04-24T12:38:39;98224.91;;;10.42;54.99
27685;BME280;46113;50.130;8.526;2023-04-24T12:41:12;98221.13;;;9.45;57.68
27685;BME280;46113;50.130;8.526;2023-04-24T12:43:53;98232.06;;;10.28;54.13
27685;BME280;46113;50.130;8.526;2023-04-24T12:46:21;98234.47;;;10.07;57.26
27685;BME280;46113;50.130;8.526;2023-04-24T12:48:48;98246.06;;;9.80;60.36
27685;BME280;46113;50.130;8.526;2023-04-24T12:51:15;98259.25;;;9.41;61.60
27685;BME280;46113;50.130;8.526;2023-04-24T12:53:42;98270.56;;;9.30;61.38
27685;BME280;46113;50.130;8.526;2023-04-24T12:56:09;98280.00;;;8.53;65.28
27685;BME280;46113;50.130;8.526;2023-04-24T12:58:36;98279.59;;;8.59;64.41
27685;BME280;46113;50.130;8.526;2023-04-24T13:01:06;98282.00;;;7.78;64.72
27685;BME280;46113;50.130;8.526;2023-04-24T13:03:33;98277.88;;;7.45;65.22
27685;BME280;46113;50.130;8.526;2023-04-24T13:06:00;98282.09;;;7.48;66.05
27685;BME280;46113;50.130;8.526;2023-04-24T13:08:27;98276.28;;;8.28;63.65
27685;BME280;46113;50.130;8.526;2023-04-24T13:10:54;98269.78;;;8.61;62.45
27685;BME280;46113;50.130;8.526;2023-04-24T13:13:21;98264.03;;;8.82;62.12
27685;BME280;46113;50.130;8.526;2023-04-24T13:15:47;98262.34;;;8.68;66.04
27685;BME280;46113;50.130;8.526;2023-04-24T13:18:14;98272.16;;;8.66;66.93
27685;BME280;46113;50.130;8.526;2023-04-24T13:20:42;98264.16;;;8.26;64.32
27685;BME280;46113;50.130;8.526;2023-04-24T13:23:10;98273.03;;;8.37;65.95
27685;BME280;46113;50.130;8.526;2023-04-24T13:25:37;98265.03;;;8.94;64.18
27685;BME280;46113;50.130;8.526;2023-04-24T13:28:09;98263.25;;;9.08;64.21
27685;BME280;46113;50.130;8.526;2023-04-24T13:30:37;98263.00;;;8.98;64.42
27685;BME280;46113;50.130;8.526;2023-04-24T13:33:04;98273.06;;;9.19;65.06
27685;BME280;46113;50.130;8.526;2023-04-24T13:35:31;98272.34;;;9.42;62.26
27685;BME280;46113;50.130;8.526;2023-04-24T13:37:58;98266.72;;;8.95;63.53
27685;BME280;46113;50.130;8.526;2023-04-24T13:40:24;98278.84;;;8.43;64.04
27685;BME280;46113;50.130;8.526;2023-04-24T13:42:52;98280.50;;;7.89;66.72
27685;BME280;46113;50.130;8.526;2023-04-24T13:45:18;98292.94;;;7.72;69.04